SBOSBO BES / LFRB
Speedbird OnlineSpeedbird Online BES / LFRB

Brest Bretagne Airport
04:52 8.2°C

Location Brest, France
Latitude: 48.447898864746094
Longitude: -4.418540000915527
Local Time 04:52 on 24 Apr 2024
UTC +2 hours (Europe/Paris)
Currency £1 equals EUR 1.16
METAR LFRB 240230Z AUTO 30005KT 9999 SCT019 BKN028 07/06 Q1021 TEMPO 4000 -RA BKN012
TAF TAF LFRB 232300Z 2400/2506 32005KT 9999 SCT025 PROB40 TEMPO 2400/2406 4000 -RA BKN012 PROB40 TEMPO 2412/2424 4000 SHRA BECMG 2418/2420 VRB03KT PROB40 TEMPO 2500/2506 4000 SHRA BKN013
Weather As Of 24 Apr 2024 04:52
Description Broken clouds
Wind 15 km/h from North-West (320°)
Cloud Cover 75%
Precipitation Rain: none, Snow: none
Sunrise 07:09
Sunset 21:21
Rotations During the last 90 days there were
1 flights from LPA
Codes IATA: BES
ICAO: LFRB
Altitude 99 Meter / 325 Feet
Distance 470 KM / 292 Miles
from London.



Support Speedbird Online

© 2017-2024 Speedbird Online